KCLL

Easterwood Field Airport

College Station, Texas, USA
METAR KCLL 170553Z AUTO 01007KT 10SM FEW006 BKN041 08/07 A3005 RMK AO2 RAE16 SLP174 P0000 60072 T00780067 10078 20072 401220033 58013
Observed Flight Rules
Dec-17 @ 05:53 UTC (26 minutes ago) Visual Flight Rules
Wind Visibility Clouds
10° at 7 knots 10 miles
  • Few at 600' AGL
  • Broken at 4,100' AGL
Temperatures Readings Precipitation
Current 8°C / 46°F
Dewpoint 7°C / 45°F
Humidity 93%
Altimeter 30.05" Hg
Pressure 1017.4 hPa
Elevation 96
Current Rain 0.005
METAR KCLL 170553Z AUTO 01007KT 10SM FEW006 BKN041 08/07 A3005 RMK AO2 RAE16 SLP174 P0000 60072 T00780067 10078 20072 401220033 58013
Observed Flight Rules
Dec-17 @ 05:53 UTC
(26 minutes ago)
VFR
Wind Visibility
10° at 7 knots 10 miles
Clouds
  • Few at 600' AGL
  • Broken at 4,100' AGL
Temperature Dewpoint
8°C / 46°F 7°C / 45°F
Humidity Altimeter Pressure
93% 30.05" Hg 1017.4 hPa
Current Rain
0.005